sensor_id;sensor_type;location;lat;lon;timestamp;pressure;altitude;pressure_sealevel;temperature;humidity
8575;BME280;4325;42.520;27.448;2023-04-27T00:01:08;100408.34;;;12.19;100.00
8575;BME280;4325;42.520;27.448;2023-04-27T00:03:35;100411.53;;;12.26;100.00
8575;BME280;4325;42.520;27.448;2023-04-27T00:06:04;100413.16;;;12.27;100.00
8575;BME280;4325;42.520;27.448;2023-04-27T00:08:31;100413.63;;;12.34;100.00
8575;BME280;4325;42.520;27.448;2023-04-27T00:10:58;100429.53;;;12.37;100.00
8575;BME280;4325;42.520;27.448;2023-04-27T00:13:25;100431.19;;;12.38;100.00
8575;BME280;4325;42.520;27.448;2023-04-27T00:15:52;100425.97;;;12.36;100.00
8575;BME280;4325;42.520;27.448;2023-04-27T00:18:19;100417.81;;;12.31;100.00
8575;BME280;4325;42.520;27.448;2023-04-27T00:20:46;100436.72;;;12.33;100.00
8575;BME280;4325;42.520;27.448;2023-04-27T00:23:14;100435.91;;;12.32;100.00
8575;BME280;4325;42.520;27.448;2023-04-27T00:25:41;100436.25;;;12.26;100.00
8575;BME280;4325;42.520;27.448;2023-04-27T00:28:08;100445.59;;;12.25;100.00
8575;BME280;4325;42.520;27.448;2023-04-27T00:30:35;100438.53;;;12.19;100.00
8575;BME280;4325;42.520;27.448;2023-04-27T00:33:02;100437.31;;;12.01;100.00
8575;BME280;4325;42.520;27.448;2023-04-27T00:35:29;100436.56;;;11.90;100.00
8575;BME280;4325;42.520;27.448;2023-04-27T00:37:57;100449.75;;;11.88;100.00
8575;BME280;4325;42.520;27.448;2023-04-27T00:40:26;100447.63;;;11.80;100.00
8575;BME280;4325;42.520;27.448;2023-04-27T00:42:53;100434.03;;;11.65;100.00
8575;BME280;4325;42.520;27.448;2023-04-27T00:45:20;100448.78;;;11.74;100.00
8575;BME280;4325;42.520;27.448;2023-04-27T00:47:46;100449.00;;;11.78;100.00
8575;BME280;4325;42.520;27.448;2023-04-27T00:50:13;100454.75;;;11.81;100.00
8575;BME280;4325;42.520;27.448;2023-04-27T00:52:41;100457.50;;;11.81;100.00
8575;BME280;4325;42.520;27.448;2023-04-27T00:55:09;100461.34;;;11.80;100.00
8575;BME280;4325;42.520;27.448;2023-04-27T00:57:37;100470.69;;;11.79;100.00
8575;BME280;4325;42.520;27.448;2023-04-27T01:00:05;100470.16;;;11.77;100.00
8575;BME280;4325;42.520;27.448;2023-04-27T01:02:33;100477.78;;;11.80;100.00
8575;BME280;4325;42.520;27.448;2023-04-27T01:05:01;100483.84;;;11.82;100.00
8575;BME280;4325;42.520;27.448;2023-04-27T01:07:28;100486.28;;;11.84;100.00
8575;BME280;4325;42.520;27.448;2023-04-27T01:09:55;100489.03;;;11.84;100.00
8575;BME280;4325;42.520;27.448;2023-04-27T01:12:22;100493.97;;;11.82;100.00
8575;BME280;4325;42.520;27.448;2023-04-27T01:14:50;100498.66;;;11.81;100.00
8575;BME280;4325;42.520;27.448;2023-04-27T01:17:17;100502.47;;;11.80;100.00
8575;BME280;4325;42.520;27.448;2023-04-27T01:19:44;100501.09;;;11.83;100.00
8575;BME280;4325;42.520;27.448;2023-04-27T01:22:11;100499.69;;;11.85;100.00
8575;BME280;4325;42.520;27.448;2023-04-27T01:24:40;100499.13;;;11.88;100.00
8575;BME280;4325;42.520;27.448;2023-04-27T01:27:07;100511.22;;;11.87;100.00
8575;BME280;4325;42.520;27.448;2023-04-27T01:29:34;100513.97;;;11.87;100.00
8575;BME280;4325;42.520;27.448;2023-04-27T01:32:01;100511.78;;;11.84;100.00
8575;BME280;4325;42.520;27.448;2023-04-27T01:34:29;100516.16;;;11.85;100.00
8575;BME280;4325;42.520;27.448;2023-04-27T01:36:55;100517.53;;;11.83;100.00
8575;BME280;4325;42.520;27.448;2023-04-27T01:39:22;100522.81;;;11.79;100.00
8575;BME280;4325;42.520;27.448;2023-04-27T01:41:51;100522.81;;;11.79;100.00
8575;BME280;4325;42.520;27.448;2023-04-27T01:44:18;100525.81;;;11.78;100.00
8575;BME280;4325;42.520;27.448;2023-04-27T01:46:45;100519.56;;;11.72;100.00
8575;BME280;4325;42.520;27.448;2023-04-27T01:49:12;100524.50;;;11.65;100.00
8575;BME280;4325;42.520;27.448;2023-04-27T01:51:39;100528.94;;;11.56;100.00
8575;BME280;4325;42.520;27.448;2023-04-27T01:54:06;100522.38;;;11.52;100.00
8575;BME280;4325;42.520;27.448;2023-04-27T01:56:32;100514.75;;;11.44;100.00
8575;BME280;4325;42.520;27.448;2023-04-27T01:59:01;100532.34;;;11.38;100.00
8575;BME280;4325;42.520;27.448;2023-04-27T02:01:28;100523.59;;;11.31;100.00
8575;BME280;4325;42.520;27.448;2023-04-27T02:03:55;100531.84;;;11.26;100.00
8575;BME280;4325;42.520;27.448;2023-04-27T02:06:22;100536.28;;;11.17;100.00
8575;BME280;4325;42.520;27.448;2023-04-27T02:08:49;100533.56;;;11.12;100.00
8575;BME280;4325;42.520;27.448;2023-04-27T02:11:16;100530.84;;;11.07;100.00
8575;BME280;4325;42.520;27.448;2023-04-27T02:13:43;100533.06;;;11.00;100.00
8575;BME280;4325;42.520;27.448;2023-04-27T02:16:11;100547.84;;;10.94;100.00
8575;BME280;4325;42.520;27.448;2023-04-27T02:18:38;100545.13;;;10.89;100.00
8575;BME280;4325;42.520;27.448;2023-04-27T02:21:09;100550.06;;;10.82;100.00
8575;BME280;4325;42.520;27.448;2023-04-27T02:23:36;100552.81;;;10.77;100.00
8575;BME280;4325;42.520;27.448;2023-04-27T02:26:03;100554.50;;;10.73;100.00
8575;BME280;4325;42.520;27.448;2023-04-27T02:28:30;100559.97;;;10.73;100.00
8575;BME280;4325;42.520;27.448;2023-04-27T02:30:57;100569.00;;;10.68;100.00
8575;BME280;4325;42.520;27.448;2023-04-27T02:33:25;100567.38;;;10.67;100.00
8575;BME280;4325;42.520;27.448;2023-04-27T02:35:52;100573.66;;;10.63;100.00
8575;BME280;4325;42.520;27.448;2023-04-27T02:38:19;100567.38;;;10.62;100.00
8575;BME280;4325;42.520;27.448;2023-04-27T02:40:52;100569.84;;;10.58;100.00
8575;BME280;4325;42.520;27.448;2023-04-27T02:43:19;100564.38;;;10.53;100.00
8575;BME280;4325;42.520;27.448;2023-04-27T02:45:46;100572.59;;;10.48;100.00
8575;BME280;4325;42.520;27.448;2023-04-27T02:48:13;100568.22;;;10.47;100.00
8575;BME280;4325;42.520;27.448;2023-04-27T02:50:41;100569.28;;;10.46;100.00
8575;BME280;4325;42.520;27.448;2023-04-27T02:53:09;100572.59;;;10.43;100.00
8575;BME280;4325;42.520;27.448;2023-04-27T02:55:36;100578.91;;;10.39;100.00
8575;BME280;4325;42.520;27.448;2023-04-27T02:58:03;100593.38;;;10.34;100.00
8575;BME280;4325;42.520;27.448;2023-04-27T03:00:30;100580.50;;;10.35;100.00
8575;BME280;4325;42.520;27.448;2023-04-27T03:02:57;100592.56;;;10.34;100.00
8575;BME280;4325;42.520;27.448;2023-04-27T03:05:25;100598.06;;;10.34;100.00
8575;BME280;4325;42.520;27.448;2023-04-27T03:07:54;100607.06;;;10.34;100.00
8575;BME280;4325;42.520;27.448;2023-04-27T03:10:21;100617.47;;;10.32;100.00
8575;BME280;4325;42.520;27.448;2023-04-27T03:12:47;100626.75;;;10.21;100.00
8575;BME280;4325;42.520;27.448;2023-04-27T03:15:14;100626.47;;;10.18;100.00
8575;BME280;4325;42.520;27.448;2023-04-27T03:17:41;100633.31;;;10.15;100.00
8575;BME280;4325;42.520;27.448;2023-04-27T03:20:09;100644.25;;;10.15;100.00
8575;BME280;4325;42.520;27.448;2023-04-27T03:22:37;100653.25;;;10.11;100.00
8575;BME280;4325;42.520;27.448;2023-04-27T03:25:06;100654.88;;;10.07;100.00
8575;BME280;4325;42.520;27.448;2023-04-27T03:27:32;100657.59;;;9.96;100.00
8575;BME280;4325;42.520;27.448;2023-04-27T03:29:59;100663.88;;;9.97;100.00
8575;BME280;4325;42.520;27.448;2023-04-27T03:32:27;100661.19;;;10.02;100.00
8575;BME280;4325;42.520;27.448;2023-04-27T03:34:54;100667.75;;;10.06;100.00
8575;BME280;4325;42.520;27.448;2023-04-27T03:37:21;100672.69;;;10.09;100.00
8575;BME280;4325;42.520;27.448;2023-04-27T03:39:48;100670.53;;;10.21;100.00
8575;BME280;4325;42.520;27.448;2023-04-27T03:42:16;100670.00;;;10.34;100.00
8575;BME280;4325;42.520;27.448;2023-04-27T03:44:43;100671.13;;;10.43;100.00
8575;BME280;4325;42.520;27.448;2023-04-27T03:47:10;100679.34;;;10.43;100.00
8575;BME280;4325;42.520;27.448;2023-04-27T03:49:38;100679.34;;;10.48;100.00
8575;BME280;4325;42.520;27.448;2023-04-27T03:52:04;100694.66;;;10.49;100.00
8575;BME280;4325;42.520;27.448;2023-04-27T03:54:32;100696.88;;;10.57;100.00
8575;BME280;4325;42.520;27.448;2023-04-27T03:56:59;100700.97;;;10.60;100.00
8575;BME280;4325;42.520;27.448;2023-04-27T03:59:29;100703.44;;;10.67;100.00
8575;BME280;4325;42.520;27.448;2023-04-27T04:01:56;100702.63;;;10.71;100.00
8575;BME280;4325;42.520;27.448;2023-04-27T04:04:23;100710.81;;;10.71;100.00
8575;BME280;4325;42.520;27.448;2023-04-27T04:06:50;100721.25;;;10.79;100.00
8575;BME280;4325;42.520;27.448;2023-04-27T04:09:17;100725.66;;;10.85;100.00
8575;BME280;4325;42.520;27.448;2023-04-27T04:11:44;100736.84;;;10.89;100.00
8575;BME280;4325;42.520;27.448;2023-04-27T04:14:11;100729.72;;;10.98;100.00
8575;BME280;4325;42.520;27.448;2023-04-27T04:16:39;100743.44;;;11.03;100.00
8575;BME280;4325;42.520;27.448;2023-04-27T04:19:06;100756.03;;;11.04;100.00
8575;BME280;4325;42.520;27.448;2023-04-27T04:21:33;100744.53;;;11.12;100.00
8575;BME280;4325;42.520;27.448;2023-04-27T04:24:00;100744.53;;;11.17;100.00
8575;BME280;4325;42.520;27.448;2023-04-27T04:26:27;100748.63;;;11.29;100.00
8575;BME280;4325;42.520;27.448;2023-04-27T04:28:55;100738.19;;;11.37;100.00
8575;BME280;4325;42.520;27.448;2023-04-27T04:31:25;100745.31;;;11.48;100.00
8575;BME280;4325;42.520;27.448;2023-04-27T04:33:53;100751.03;;;11.56;100.00
8575;BME280;4325;42.520;27.448;2023-04-27T04:36:21;100749.94;;;11.67;100.00
8575;BME280;4325;42.520;27.448;2023-04-27T04:38:48;100760.63;;;11.74;100.00
8575;BME280;4325;42.520;27.448;2023-04-27T04:41:16;100761.97;;;11.81;100.00
8575;BME280;4325;42.520;27.448;2023-04-27T04:43:43;100760.28;;;11.90;100.00
8575;BME280;4325;42.520;27.448;2023-04-27T04:46:12;100767.41;;;12.02;100.00
8575;BME280;4325;42.520;27.448;2023-04-27T04:48:39;100769.53;;;12.10;100.00
8575;BME280;4325;42.520;27.448;2023-04-27T04:51:08;100773.63;;;12.17;100.00
8575;BME280;4325;42.520;27.448;2023-04-27T04:53:34;100773.06;;;12.25;100.00
8575;BME280;4325;42.520;27.448;2023-04-27T04:56:09;100775.47;;;12.37;100.00
8575;BME280;4325;42.520;27.448;2023-04-27T04:58:36;100777.88;;;12.48;100.00
8575;BME280;4325;42.520;27.448;2023-04-27T05:01:03;100783.59;;;12.57;100.00
8575;BME280;4325;42.520;27.448;2023-04-27T05:03:30;100779.69;;;12.63;100.00
8575;BME280;4325;42.520;27.448;2023-04-27T05:05:57;100777.50;;;12.70;100.00
8575;BME280;4325;42.520;27.448;2023-04-27T05:08:25;100792.84;;;12.71;99.07
8575;BME280;4325;42.520;27.448;2023-04-27T05:10:53;100789.56;;;12.69;98.27
8575;BME280;4325;42.520;27.448;2023-04-27T05:13:20;100791.22;;;12.70;94.61
8575;BME280;4325;42.520;27.448;2023-04-27T05:15:49;100786.25;;;12.72;93.55
8575;BME280;4325;42.520;27.448;2023-04-27T05:18:16;100788.50;;;12.65;93.47
8575;BME280;4325;42.520;27.448;2023-04-27T05:20:43;100787.41;;;12.61;92.11
8575;BME280;4325;42.520;27.448;2023-04-27T05:23:10;100785.25;;;12.58;91.44
8575;BME280;4325;42.520;27.448;2023-04-27T05:25:38;100789.06;;;12.62;91.65
8575;BME280;4325;42.520;27.448;2023-04-27T05:28:07;100795.69;;;12.56;88.01
8575;BME280;4325;42.520;27.448;2023-04-27T05:30:34;100795.66;;;12.61;89.24
8575;BME280;4325;42.520;27.448;2023-04-27T05:33:01;100805.00;;;12.65;89.65
8575;BME280;4325;42.520;27.448;2023-04-27T05:35:28;100800.53;;;12.74;89.18
8575;BME280;4325;42.520;27.448;2023-04-27T05:37:55;100797.47;;;12.76;86.68
8575;BME280;4325;42.520;27.448;2023-04-27T05:40:22;100811.22;;;12.76;85.11
8575;BME280;4325;42.520;27.448;2023-04-27T05:42:50;100810.44;;;12.75;83.69
8575;BME280;4325;42.520;27.448;2023-04-27T05:45:17;100799.09;;;12.82;84.52
8575;BME280;4325;42.520;27.448;2023-04-27T05:47:44;100809.22;;;12.91;85.77
8575;BME280;4325;42.520;27.448;2023-04-27T05:50:11;100808.53;;;13.04;86.76
8575;BME280;4325;42.520;27.448;2023-04-27T05:52:38;100807.72;;;13.14;85.75
8575;BME280;4325;42.520;27.448;2023-04-27T05:55:06;100815.63;;;13.20;84.02
8575;BME280;4325;42.520;27.448;2023-04-27T05:57:33;100820.50;;;13.29;83.75
8575;BME280;4325;42.520;27.448;2023-04-27T06:00:02;100825.41;;;13.32;79.24
8575;BME280;4325;42.520;27.448;2023-04-27T06:02:33;100834.78;;;13.31;76.45
8575;BME280;4325;42.520;27.448;2023-04-27T06:05:00;100835.34;;;13.28;77.57
8575;BME280;4325;42.520;27.448;2023-04-27T06:07:28;100834.78;;;13.31;77.96
8575;BME280;4325;42.520;27.448;2023-04-27T06:10:07;100832.56;;;13.33;74.26
8575;BME280;4325;42.520;27.448;2023-04-27T06:12:39;100845.78;;;13.31;76.04
8575;BME280;4325;42.520;27.448;2023-04-27T06:15:11;100835.63;;;13.31;74.84
8575;BME280;4325;42.520;27.448;2023-04-27T06:17:41;100839.13;;;13.37;75.79
8575;BME280;4325;42.520;27.448;2023-04-27T06:20:15;100847.25;;;13.52;75.39
8575;BME280;4325;42.520;27.448;2023-04-27T06:22:42;100843.25;;;13.68;84.08
8575;BME280;4325;42.520;27.448;2023-04-27T06:27:56;100842.91;;;14.03;86.49
8575;BME280;4325;42.520;27.448;2023-04-27T06:30:25;100837.41;;;14.03;80.50
8575;BME280;4325;42.520;27.448;2023-04-27T06:32:51;100858.06;;;14.24;77.14
8575;BME280;4325;42.520;27.448;2023-04-27T06:35:19;100858.84;;;14.30;75.83
8575;BME280;4325;42.520;27.448;2023-04-27T06:37:45;100860.63;;;14.44;74.46
8575;BME280;4325;42.520;27.448;2023-04-27T06:40:13;100865.19;;;14.54;72.30
8575;BME280;4325;42.520;27.448;2023-04-27T06:42:40;100865.53;;;14.71;68.67
8575;BME280;4325;42.520;27.448;2023-04-27T06:45:07;100864.28;;;15.01;71.04
8575;BME280;4325;42.520;27.448;2023-04-27T06:47:35;100866.88;;;15.30;72.45
8575;BME280;4325;42.520;27.448;2023-04-27T06:50:02;100876.22;;;15.52;71.34
8575;BME280;4325;42.520;27.448;2023-04-27T06:52:31;100877.16;;;15.61;68.89
8575;BME280;4325;42.520;27.448;2023-04-27T06:54:58;100884.13;;;15.72;67.98
8575;BME280;4325;42.520;27.448;2023-04-27T06:57:25;100885.69;;;15.78;67.51
8575;BME280;4325;42.520;27.448;2023-04-27T06:59:52;100888.06;;;15.85;66.73
8575;BME280;4325;42.520;27.448;2023-04-27T07:02:19;100881.69;;;15.84;64.02
8575;BME280;4325;42.520;27.448;2023-04-27T07:04:47;100874.66;;;15.78;65.22
8575;BME280;4325;42.520;27.448;2023-04-27T07:07:14;100884.00;;;15.96;65.93
8575;BME280;4325;42.520;27.448;2023-04-27T07:09:41;100884.53;;;15.98;63.76
8575;BME280;4325;42.520;27.448;2023-04-27T07:12:08;100879.28;;;15.97;64.60
8575;BME280;4325;42.520;27.448;2023-04-27T07:14:37;100874.22;;;16.04;64.13
8575;BME280;4325;42.520;27.448;2023-04-27T07:17:10;100870.81;;;16.07;65.88
8575;BME280;4325;42.520;27.448;2023-04-27T07:19:39;100876.75;;;16.14;65.46
8575;BME280;4325;42.520;27.448;2023-04-27T07:22:08;100876.28;;;16.25;64.07
8575;BME280;4325;42.520;27.448;2023-04-27T07:24:36;100873.50;;;16.39;64.37
8575;BME280;4325;42.520;27.448;2023-04-27T07:27:03;100869.84;;;16.57;66.59
8575;BME280;4325;42.520;27.448;2023-04-27T07:29:30;100871.66;;;16.75;66.19
8575;BME280;4325;42.520;27.448;2023-04-27T07:31:57;100874.22;;;16.85;63.24
8575;BME280;4325;42.520;27.448;2023-04-27T07:34:24;100877.19;;;16.89;62.36
8575;BME280;4325;42.520;27.448;2023-04-27T07:36:51;100875.13;;;16.94;61.26
8575;BME280;4325;42.520;27.448;2023-04-27T07:39:20;100878.81;;;17.03;61.09
8575;BME280;4325;42.520;27.448;2023-04-27T07:41:48;100890.16;;;17.15;61.23
8575;BME280;4325;42.520;27.448;2023-04-27T07:44:16;100873.41;;;17.21;58.27
8575;BME280;4325;42.520;27.448;2023-04-27T07:46:44;100885.25;;;17.35;59.57
8575;BME280;4325;42.520;27.448;2023-04-27T07:49:11;100878.22;;;17.51;58.92
8575;BME280;4325;42.520;27.448;2023-04-27T07:51:39;100883.28;;;17.71;58.79
8575;BME280;4325;42.520;27.448;2023-04-27T07:54:06;100883.28;;;17.93;59.51
8575;BME280;4325;42.520;27.448;2023-04-27T07:56:34;100879.28;;;18.08;55.08
8575;BME280;4325;42.520;27.448;2023-04-27T07:59:01;100883.88;;;18.12;53.92
8575;BME280;4325;42.520;27.448;2023-04-27T08:01:28;100875.84;;;18.41;55.55
8575;BME280;4325;42.520;27.448;2023-04-27T08:03:55;100876.63;;;18.73;52.86
8575;BME280;4325;42.520;27.448;2023-04-27T08:06:22;100876.38;;;19.17;52.25
8575;BME280;4325;42.520;27.448;2023-04-27T08:08:49;100880.16;;;19.47;50.11
8575;BME280;4325;42.520;27.448;2023-04-27T08:11:16;100890.09;;;19.73;48.78
8575;BME280;4325;42.520;27.448;2023-04-27T08:13:44;100887.09;;;19.96;46.55
8575;BME280;4325;42.520;27.448;2023-04-27T08:16:11;100883.94;;;20.23;45.50
8575;BME280;4325;42.520;27.448;2023-04-27T08:18:38;100880.94;;;20.74;46.17
8575;BME280;4325;42.520;27.448;2023-04-27T08:21:05;100872.06;;;21.31;42.68
8575;BME280;4325;42.520;27.448;2023-04-27T08:23:31;100871.63;;;22.99;39.88
8575;BME280;4325;42.520;27.448;2023-04-27T08:25:58;100879.50;;;24.79;37.72
8575;BME280;4325;42.520;27.448;2023-04-27T08:28:25;100881.41;;;25.45;34.47
8575;BME280;4325;42.520;27.448;2023-04-27T08:30:54;100885.78;;;25.27;33.05
8575;BME280;4325;42.520;27.448;2023-04-27T08:33:20;100879.72;;;25.60;33.76
8575;BME280;4325;42.520;27.448;2023-04-27T08:35:47;100879.25;;;26.38;33.56
8575;BME280;4325;42.520;27.448;2023-04-27T08:38:14;100885.53;;;27.03;31.22
8575;BME280;4325;42.520;27.448;2023-04-27T08:40:42;100877.69;;;28.08;30.52
8575;BME280;4325;42.520;27.448;2023-04-27T08:43:09;100875.84;;;30.53;27.87
8575;BME280;4325;42.520;27.448;2023-04-27T08:45:36;100876.91;;;33.90;24.47
8575;BME280;4325;42.520;27.448;2023-04-27T08:48:04;100864.25;;;35.60;21.15
8575;BME280;4325;42.520;27.448;2023-04-27T08:50:31;100861.34;;;37.41;19.44
8575;BME280;4325;42.520;27.448;2023-04-27T08:52:58;100867.41;;;39.20;17.69
8575;BME280;4325;42.520;27.448;2023-04-27T08:55:25;100864.03;;;39.00;16.61
8575;BME280;4325;42.520;27.448;2023-04-27T08:57:54;100871.50;;;38.84;16.12
8575;BME280;4325;42.520;27.448;2023-04-27T09:00:23;100864.16;;;39.52;16.14
8575;BME280;4325;42.520;27.448;2023-04-27T09:02:50;100856.09;;;40.52;15.36
8575;BME280;4325;42.520;27.448;2023-04-27T09:05:20;100860.50;;;40.44;14.98
8575;BME280;4325;42.520;27.448;2023-04-27T09:07:58;100856.78;;;40.83;14.56
8575;BME280;4325;42.520;27.448;2023-04-27T09:10:25;100855.84;;;41.59;14.27
8575;BME280;4325;42.520;27.448;2023-04-27T09:12:55;100844.03;;;41.57;14.53
8575;BME280;4325;42.520;27.448;2023-04-27T09:15:22;100855.22;;;41.00;14.58
8575;BME280;4325;42.520;27.448;2023-04-27T09:17:53;100842.16;;;39.27;15.55
8575;BME280;4325;42.520;27.448;2023-04-27T09:20:22;100844.06;;;37.74;16.86
8575;BME280;4325;42.520;27.448;2023-04-27T09:22:52;100831.38;;;36.60;17.24
8575;BME280;4325;42.520;27.448;2023-04-27T09:25:24;100846.19;;;35.28;17.58
8575;BME280;4325;42.520;27.448;2023-04-27T09:27:51;100845.84;;;34.33;18.72
8575;BME280;4325;42.520;27.448;2023-04-27T09:30:19;100842.22;;;35.61;18.56
8575;BME280;4325;42.520;27.448;2023-04-27T09:32:51;100843.78;;;37.97;16.77
8575;BME280;4325;42.520;27.448;2023-04-27T09:35:22;100838.66;;;40.37;15.39
8575;BME280;4325;42.520;27.448;2023-04-27T09:37:50;100835.88;;;41.46;14.64
8575;BME280;4325;42.520;27.448;2023-04-27T09:40:18;100832.44;;;41.93;14.41
8575;BME280;4325;42.520;27.448;2023-04-27T09:42:45;100850.41;;;42.53;13.78
8575;BME280;4325;42.520;27.448;2023-04-27T09:45:12;100845.81;;;43.47;13.35
8575;BME280;4325;42.520;27.448;2023-04-27T09:47:40;100845.69;;;45.04;12.45
8575;BME280;4325;42.520;27.448;2023-04-27T09:50:07;100843.56;;;45.76;11.75
8575;BME280;4325;42.520;27.448;2023-04-27T09:52:36;100833.91;;;45.85;11.78
8575;BME280;4325;42.520;27.448;2023-04-27T09:55:04;100838.38;;;45.29;11.90
8575;BME280;4325;42.520;27.448;2023-04-27T09:57:36;100839.69;;;46.16;11.80
8575;BME280;4325;42.520;27.448;2023-04-27T10:00:19;100840.25;;;47.27;10.92
8575;BME280;4325;42.520;27.448;2023-04-27T10:03:04;100842.56;;;47.06;10.72
8575;BME280;4325;42.520;27.448;2023-04-27T10:05:41;100829.00;;;47.51;10.81
8575;BME280;4325;42.520;27.448;2023-04-27T10:08:14;100838.53;;;46.39;11.02
8575;BME280;4325;42.520;27.448;2023-04-27T10:10:42;100829.41;;;46.10;10.88
8575;BME280;4325;42.520;27.448;2023-04-27T10:13:20;100830.16;;;46.10;11.07
8575;BME280;4325;42.520;27.448;2023-04-27T10:15:47;100829.69;;;44.14;11.15
8575;BME280;4325;42.520;27.448;2023-04-27T10:18:24;100831.69;;;42.25;12.27
8575;BME280;4325;42.520;27.448;2023-04-27T10:20:52;100832.06;;;40.95;12.51
8575;BME280;4325;42.520;27.448;2023-04-27T10:23:25;100820.03;;;40.60;13.61
8575;BME280;4325;42.520;27.448;2023-04-27T10:25:53;100833.84;;;41.28;13.02
8575;BME280;4325;42.520;27.448;2023-04-27T10:28:20;100826.00;;;41.20;12.97
8575;BME280;4325;42.520;27.448;2023-04-27T10:30:47;100822.88;;;40.42;13.17
8575;BME280;4325;42.520;27.448;2023-04-27T10:33:18;100818.34;;;39.92;13.97
8575;BME280;4325;42.520;27.448;2023-04-27T10:35:53;100817.22;;;40.69;13.22
8575;BME280;4325;42.520;27.448;2023-04-27T10:38:26;100820.97;;;41.75;12.93
8575;BME280;4325;42.520;27.448;2023-04-27T10:40:55;100826.72;;;43.35;12.12
8575;BME280;4325;42.520;27.448;2023-04-27T10:43:24;100826.72;;;42.97;12.41
8575;BME280;4325;42.520;27.448;2023-04-27T10:45:52;100827.53;;;41.75;12.90
8575;BME280;4325;42.520;27.448;2023-04-27T10:48:19;100809.56;;;40.84;15.86
8575;BME280;4325;42.520;27.448;2023-04-27T10:50:46;100809.44;;;39.90;17.68
8575;BME280;4325;42.520;27.448;2023-04-27T10:53:13;100817.88;;;38.97;17.04
8575;BME280;4325;42.520;27.448;2023-04-27T10:55:40;100818.13;;;37.81;16.70
8575;BME280;4325;42.520;27.448;2023-04-27T10:58:08;100834.28;;;37.17;17.03
8575;BME280;4325;42.520;27.448;2023-04-27T11:00:38;100825.22;;;36.90;17.21
8575;BME280;4325;42.520;27.448;2023-04-27T11:03:10;100830.09;;;36.44;17.86
8575;BME280;4325;42.520;27.448;2023-04-27T11:05:39;100826.16;;;36.87;17.24
8575;BME280;4325;42.520;27.448;2023-04-27T11:08:08;100832.19;;;37.05;16.75
8575;BME280;4325;42.520;27.448;2023-04-27T11:10:38;100825.31;;;37.31;16.90
8575;BME280;4325;42.520;27.448;2023-04-27T11:13:08;100830.06;;;38.29;16.45
8575;BME280;4325;42.520;27.448;2023-04-27T11:15:45;100826.41;;;38.88;16.45
8575;BME280;4325;42.520;27.448;2023-04-27T11:18:13;100826.97;;;37.99;16.75
8575;BME280;4325;42.520;27.448;2023-04-27T11:20:42;100825.28;;;36.74;17.32
8575;BME280;4325;42.520;27.448;2023-04-27T11:23:09;100817.00;;;36.31;18.18
8575;BME280;4325;42.520;27.448;2023-04-27T11:25:36;100829.78;;;35.55;18.01
8575;BME280;4325;42.520;27.448;2023-04-27T11:28:04;100825.44;;;34.38;19.45
8575;BME280;4325;42.520;27.448;2023-04-27T11:30:32;100827.34;;;33.34;20.31
8575;BME280;4325;42.520;27.448;2023-04-27T11:33:07;100833.22;;;32.28;20.65
8575;BME280;4325;42.520;27.448;2023-04-27T11:35:34;100828.84;;;31.37;20.48
8575;BME280;4325;42.520;27.448;2023-04-27T11:38:01;100828.97;;;30.13;22.61
8575;BME280;4325;42.520;27.448;2023-04-27T11:40:28;100821.63;;;29.73;23.16
8575;BME280;4325;42.520;27.448;2023-04-27T11:42:57;100825.09;;;29.31;22.76
8575;BME280;4325;42.520;27.448;2023-04-27T11:45:24;100833.78;;;28.98;23.67
8575;BME280;4325;42.520;27.448;2023-04-27T11:47:54;100830.53;;;28.45;23.48
8575;BME280;4325;42.520;27.448;2023-04-27T11:50:23;100827.78;;;28.05;24.75
8575;BME280;4325;42.520;27.448;2023-04-27T11:52:51;100831.59;;;27.90;25.16
8575;BME280;4325;42.520;27.448;2023-04-27T11:55:19;100832.22;;;27.69;25.36
8575;BME280;4325;42.520;27.448;2023-04-27T11:57:47;100829.56;;;27.50;26.15
8575;BME280;4325;42.520;27.448;2023-04-27T12:00:14;100827.44;;;27.14;25.77
8575;BME280;4325;42.520;27.448;2023-04-27T12:02:42;100833.06;;;26.84;26.21
8575;BME280;4325;42.520;27.448;2023-04-27T12:05:10;100821.09;;;27.46;25.71
8575;BME280;4325;42.520;27.448;2023-04-27T12:07:37;100825.06;;;27.79;25.86
8575;BME280;4325;42.520;27.448;2023-04-27T12:10:05;100821.50;;;27.48;25.93
8575;BME280;4325;42.520;27.448;2023-04-27T12:12:33;100832.34;;;27.46;26.03
8575;BME280;4325;42.520;27.448;2023-04-27T12:15:00;100828.69;;;27.42;25.76
8575;BME280;4325;42.520;27.448;2023-04-27T12:17:27;100824.06;;;27.61;25.28
8575;BME280;4325;42.520;27.448;2023-04-27T12:19:54;100826.13;;;28.44;25.34
8575;BME280;4325;42.520;27.448;2023-04-27T12:22:22;100819.72;;;29.09;24.00
8575;BME280;4325;42.520;27.448;2023-04-27T12:24:49;100824.41;;;29.63;23.67
8575;BME280;4325;42.520;27.448;2023-04-27T12:27:16;100822.50;;;31.91;22.07
8575;BME280;4325;42.520;27.448;2023-04-27T12:29:43;100827.22;;;32.67;20.66
8575;BME280;4325;42.520;27.448;2023-04-27T12:32:10;100830.75;;;32.33;20.77
8575;BME280;4325;42.520;27.448;2023-04-27T12:34:37;100831.88;;;32.43;20.61
8575;BME280;4325;42.520;27.448;2023-04-27T12:37:05;100839.56;;;32.42;20.80
8575;BME280;4325;42.520;27.448;2023-04-27T12:39:33;100834.44;;;32.78;20.45
8575;BME280;4325;42.520;27.448;2023-04-27T12:42:00;100835.88;;;32.52;20.25
8575;BME280;4325;42.520;27.448;2023-04-27T12:44:28;100834.38;;;31.72;20.71
8575;BME280;4325;42.520;27.448;2023-04-27T12:46:54;100842.34;;;30.62;21.94
8575;BME280;4325;42.520;27.448;2023-04-27T12:49:21;100837.63;;;29.41;22.96
8575;BME280;4325;42.520;27.448;2023-04-27T12:51:48;100846.44;;;28.20;23.75
8575;BME280;4325;42.520;27.448;2023-04-27T12:54:16;100831.41;;;27.09;25.23
8575;BME280;4325;42.520;27.448;2023-04-27T12:56:44;100840.88;;;26.23;26.56
8575;BME280;4325;42.520;27.448;2023-04-27T12:59:11;100840.16;;;25.65;27.63
8575;BME280;4325;42.520;27.448;2023-04-27T13:01:38;100859.09;;;25.14;28.36